Terminal Aerodrome Forecast
Issued by NWS

Home | Current Version | Previous Version | Text Only | Print | Product List | Glossary On
Versions: 1 2 3 4 5 6 7 8 9 10 11 12 13 14 15 16 17 18 19 20 21 22 23 24 25 26 27 28 29
139
FTUS44 KFWD 072105 AAB
TAFGKY
TAF AMD
KGKY 072105Z 0721/0818 35005KT P6SM BKN026 OVC050
     FM080000 36015G25KT P6SM BKN015
     FM080100 35016G26KT P6SM OVC020
     FM081500 01015G25KT P6SM BKN150=

USA.gov is the U.S. government's official web portal to all federal, state and local government web resources and services.